createdAt,value
2023-01-29T00:00:17.729Z,14.30
2023-01-29T00:03:07.614Z,17.40
2023-01-29T00:05:36.747Z,12.10
2023-01-29T00:08:07.052Z,11.10
2023-01-29T00:10:36.295Z,9.40
2023-01-29T00:13:05.390Z,7.50
2023-01-29T00:15:34.692Z,7.00
2023-01-29T00:18:03.993Z,6.60
2023-01-29T00:20:33.761Z,7.00
2023-01-29T00:23:03.306Z,7.50
2023-01-29T00:25:32.934Z,6.40
2023-01-29T00:28:02.845Z,8.10
2023-01-29T00:30:32.547Z,7.20
2023-01-29T00:33:01.762Z,7.00
2023-01-29T00:35:32.231Z,5.70
2023-01-29T00:38:01.548Z,6.30
2023-01-29T00:40:50.840Z,7.90
2023-01-29T00:43:38.893Z,8.90
2023-01-29T00:46:08.657Z,7.20
2023-01-29T00:48:38.009Z,7.40
2023-01-29T00:51:07.410Z,8.90
2023-01-29T00:53:36.458Z,7.20
2023-01-29T00:56:06.596Z,8.90
2023-01-29T00:58:35.997Z,7.20
2023-01-29T01:01:05.676Z,6.70
2023-01-29T01:03:41.572Z,11.50
2023-01-29T01:06:11.836Z,10.60
2023-01-29T01:08:59.099Z,11.60
2023-01-29T01:11:28.944Z,11.30
2023-01-29T01:14:01.626Z,9.70
2023-01-29T01:16:30.978Z,7.80
2023-01-29T01:19:00.401Z,7.30
2023-01-29T01:21:29.504Z,9.40
2023-01-29T01:23:59.127Z,7.60
2023-01-29T01:26:29.739Z,8.30
2023-01-29T01:28:58.732Z,9.20
2023-01-29T01:31:27.987Z,7.20
2023-01-29T01:33:57.334Z,7.70
2023-01-29T01:36:27.799Z,9.40
2023-01-29T01:38:57.077Z,7.90
2023-01-29T01:41:27.396Z,7.20
2023-01-29T01:46:30.864Z,4.80
2023-01-29T01:49:02.884Z,7.10
2023-01-29T01:51:36.315Z,7.60
2023-01-29T01:54:10.126Z,6.20
2023-01-29T01:56:42.909Z,5.60
2023-01-29T01:59:16.011Z,6.60
2023-01-29T02:01:50.727Z,7.30
2023-01-29T02:04:42.439Z,5.20
2023-01-29T02:07:33.476Z,7.00
2023-01-29T02:10:11.026Z,7.10
2023-01-29T02:12:40.702Z,6.10
2023-01-29T02:15:11.924Z,8.10
2023-01-29T02:17:41.326Z,11.50
2023-01-29T02:20:18.101Z,9.20
2023-01-29T02:23:12.743Z,10.50
2023-01-29T02:26:16.800Z,10.00
2023-01-29T02:28:52.901Z,8.30
2023-01-29T02:31:29.386Z,7.80
2023-01-29T02:36:41.535Z,9.00
2023-01-29T02:39:19.916Z,8.60
2023-01-29T02:41:58.703Z,7.20
2023-01-29T02:44:36.548Z,6.20
2023-01-29T02:47:12.495Z,7.40
2023-01-29T02:49:49.701Z,7.40
2023-01-29T02:52:23.866Z,6.80
2023-01-29T02:55:02.359Z,9.80
2023-01-29T02:57:36.479Z,8.60
2023-01-29T03:00:10.594Z,9.20
2023-01-29T03:02:45.884Z,8.50
2023-01-29T03:05:21.806Z,9.90
2023-01-29T03:07:57.182Z,7.20
2023-01-29T03:10:38.541Z,6.90
2023-01-29T03:13:12.748Z,7.30
2023-01-29T03:15:46.384Z,6.90
2023-01-29T03:18:45.596Z,8.60
2023-01-29T03:21:41.823Z,7.30
2023-01-29T03:24:32.528Z,9.30
2023-01-29T03:27:27.573Z,9.40
2023-01-29T03:30:17.823Z,8.40
2023-01-29T03:32:57.832Z,7.40
2023-01-29T03:35:34.814Z,7.30
2023-01-29T03:38:05.790Z,7.20
2023-01-29T03:40:42.585Z,8.40
2023-01-29T03:43:19.252Z,7.60
2023-01-29T03:45:57.095Z,8.30
2023-01-29T03:48:35.062Z,9.70
2023-01-29T03:51:20.025Z,7.20
2023-01-29T03:53:54.233Z,8.20
2023-01-29T03:56:36.690Z,10.00
2023-01-29T03:59:20.837Z,8.40
2023-01-29T04:02:13.500Z,7.40
2023-01-29T04:04:47.186Z,8.60
2023-01-29T04:07:24.049Z,6.80
2023-01-29T04:10:06.188Z,10.90
2023-01-29T04:12:41.830Z,9.00
2023-01-29T04:15:16.070Z,8.00
2023-01-29T04:17:49.475Z,8.00
2023-01-29T04:20:25.390Z,8.90
2023-01-29T04:22:54.793Z,9.60
2023-01-29T04:25:28.503Z,8.90
2023-01-29T04:28:08.048Z,9.70
2023-01-29T04:30:44.933Z,8.50
2023-01-29T04:33:24.488Z,7.90
2023-01-29T04:36:13.350Z,7.60
2023-01-29T04:41:22.804Z,7.00
2023-01-29T04:44:03.041Z,7.30
2023-01-29T04:46:44.601Z,7.10
2023-01-29T04:49:21.561Z,7.80
2023-01-29T04:52:01.296Z,7.30
2023-01-29T04:54:41.788Z,6.40
2023-01-29T04:57:22.588Z,8.00
2023-01-29T05:00:00.458Z,6.60
2023-01-29T05:02:31.907Z,5.70
2023-01-29T05:05:03.295Z,7.20
2023-01-29T05:07:33.909Z,7.40
2023-01-29T05:10:04.136Z,5.80
2023-01-29T05:17:32.559Z,6.50
2023-01-29T05:20:01.888Z,7.20
2023-01-29T05:22:32.000Z,7.10
2023-01-29T05:25:01.047Z,7.00
2023-01-29T05:27:53.406Z,7.20
2023-01-29T05:30:23.089Z,8.60
2023-01-29T05:32:51.834Z,8.30
2023-01-29T05:35:21.057Z,8.90
2023-01-29T05:37:50.760Z,7.70
2023-01-29T05:40:19.639Z,4.60
2023-01-29T05:42:49.095Z,8.00
2023-01-29T05:45:19.208Z,8.00
2023-01-29T05:47:48.108Z,7.30
2023-01-29T05:50:18.732Z,8.00
2023-01-29T05:52:48.086Z,8.10
2023-01-29T05:55:17.912Z,8.50
2023-01-29T05:57:47.061Z,9.40
2023-01-29T06:00:18.593Z,8.60
2023-01-29T06:02:48.138Z,7.30
2023-01-29T06:05:17.485Z,7.60
2023-01-29T06:07:46.808Z,10.40
2023-01-29T06:10:17.894Z,9.30
2023-01-29T06:12:47.148Z,8.10
2023-01-29T06:15:16.657Z,7.70
2023-01-29T06:17:45.353Z,6.40
2023-01-29T06:20:15.471Z,6.70
2023-01-29T06:22:44.888Z,6.50
2023-01-29T06:25:14.092Z,7.40
2023-01-29T06:27:43.294Z,10.40
2023-01-29T06:30:14.649Z,5.60
2023-01-29T06:32:44.331Z,6.50
2023-01-29T06:35:13.863Z,7.40
2023-01-29T06:37:43.249Z,6.60
2023-01-29T06:40:13.829Z,6.00
2023-01-29T06:42:45.914Z,6.00
2023-01-29T06:45:15.922Z,7.50
2023-01-29T06:47:44.910Z,4.60
2023-01-29T06:50:13.895Z,5.90
2023-01-29T06:52:42.900Z,6.20
2023-01-29T06:55:11.935Z,3.70
2023-01-29T06:57:41.242Z,4.70
2023-01-29T07:00:13.055Z,3.80
2023-01-29T07:02:41.849Z,4.40
2023-01-29T07:05:11.061Z,7.10
2023-01-29T07:07:40.057Z,3.90
2023-01-29T07:10:11.078Z,5.50
2023-01-29T07:12:40.080Z,4.70
2023-01-29T07:15:12.139Z,7.10
2023-01-29T07:17:41.071Z,6.80
2023-01-29T07:20:12.437Z,10.00
2023-01-29T07:22:41.221Z,7.40
2023-01-29T07:25:11.444Z,6.20
2023-01-29T07:27:40.674Z,8.40
2023-01-29T07:30:12.904Z,9.10
2023-01-29T07:32:42.511Z,7.20
2023-01-29T07:35:11.712Z,7.90
2023-01-29T07:37:40.574Z,6.90
2023-01-29T07:40:12.517Z,10.20
2023-01-29T07:42:43.459Z,7.60
2023-01-29T07:45:13.894Z,8.10
2023-01-29T07:47:43.107Z,9.60
2023-01-29T07:50:12.890Z,9.80
2023-01-29T07:52:42.495Z,14.70
2023-01-29T07:55:11.952Z,12.20
2023-01-29T07:57:41.126Z,13.10
2023-01-29T08:00:12.886Z,12.40
2023-01-29T08:02:42.596Z,28.10
2023-01-29T08:05:11.750Z,15.90
2023-01-29T08:07:40.986Z,18.30
2023-01-29T08:10:11.793Z,15.50
2023-01-29T08:12:41.231Z,13.60
2023-01-29T08:15:12.075Z,12.70
2023-01-29T08:17:56.039Z,11.50
2023-01-29T08:20:27.228Z,9.20
2023-01-29T08:23:01.716Z,9.10
2023-01-29T08:25:31.278Z,12.50
2023-01-29T08:28:01.275Z,10.60
2023-01-29T08:30:32.619Z,10.70
2023-01-29T08:33:03.607Z,6.10
2023-01-29T08:35:32.734Z,8.10
2023-01-29T08:38:03.257Z,5.50
2023-01-29T08:40:34.843Z,7.00
2023-01-29T08:43:07.749Z,42.20
2023-01-29T08:45:40.868Z,25.90
2023-01-29T08:48:12.048Z,13.10
2023-01-29T08:50:41.288Z,18.40
2023-01-29T08:53:10.916Z,36.40
2023-01-29T08:55:41.739Z,14.20
2023-01-29T08:58:12.809Z,14.20
2023-01-29T09:00:42.125Z,17.20
2023-01-29T09:03:11.435Z,12.40
2023-01-29T09:05:41.408Z,10.20
2023-01-29T09:08:12.328Z,9.20
2023-01-29T09:10:41.379Z,10.50
2023-01-29T09:13:10.230Z,11.80
2023-01-29T09:15:39.645Z,13.60
2023-01-29T09:18:08.514Z,14.10
2023-01-29T09:20:40.021Z,11.90
2023-01-29T09:23:10.773Z,12.20
2023-01-29T09:25:39.634Z,13.70
2023-01-29T09:28:08.916Z,9.90
2023-01-29T09:30:37.904Z,13.70
2023-01-29T09:33:08.393Z,15.20
2023-01-29T09:35:37.517Z,8.50
2023-01-29T09:38:06.365Z,10.70
2023-01-29T09:40:47.467Z,16.50
2023-01-29T09:43:22.797Z,10.90
2023-01-29T09:45:58.266Z,20.80
2023-01-29T09:48:32.435Z,16.50
2023-01-29T09:51:07.104Z,11.40
2023-01-29T09:53:41.438Z,9.40
2023-01-29T09:56:17.066Z,9.50
2023-01-29T09:58:46.822Z,11.20
2023-01-29T10:01:22.515Z,10.60
2023-01-29T10:04:19.909Z,7.50
2023-01-29T10:07:07.031Z,8.80
2023-01-29T10:09:52.136Z,7.10
2023-01-29T10:12:40.693Z,7.90
2023-01-29T10:15:27.332Z,8.40
2023-01-29T10:18:10.602Z,18.30
2023-01-29T10:20:53.249Z,18.50
2023-01-29T10:23:30.237Z,12.00
2023-01-29T10:25:59.560Z,12.90
2023-01-29T10:28:34.033Z,8.90
2023-01-29T10:31:08.942Z,6.90
2023-01-29T10:33:49.408Z,10.30
2023-01-29T10:36:35.109Z,9.70
2023-01-29T10:39:05.619Z,11.10
2023-01-29T10:41:48.696Z,9.50
2023-01-29T10:44:33.446Z,9.50
2023-01-29T10:47:30.692Z,7.90
2023-01-29T10:50:13.468Z,9.90
2023-01-29T10:53:03.819Z,12.60
2023-01-29T10:55:43.261Z,9.00
2023-01-29T10:58:23.148Z,9.00
2023-01-29T11:00:52.621Z,10.90
2023-01-29T11:03:28.325Z,10.30
2023-01-29T11:06:04.304Z,9.10
2023-01-29T11:08:38.292Z,10.50
2023-01-29T11:11:12.429Z,9.20
2023-01-29T11:13:48.613Z,10.50
2023-01-29T11:16:18.193Z,9.60
2023-01-29T11:18:54.263Z,14.00
2023-01-29T11:21:24.720Z,8.70
2023-01-29T11:24:08.036Z,9.60
2023-01-29T11:26:40.969Z,14.10
2023-01-29T11:29:32.138Z,14.50
2023-01-29T11:32:04.224Z,10.30
2023-01-29T11:34:33.418Z,15.20
2023-01-29T11:37:04.550Z,10.60
2023-01-29T11:39:33.681Z,9.30
2023-01-29T11:42:04.365Z,9.70
2023-01-29T11:44:36.582Z,11.70
2023-01-29T11:47:20.944Z,11.00
2023-01-29T11:49:52.612Z,11.50
2023-01-29T11:52:24.625Z,13.60
2023-01-29T11:54:57.877Z,12.10
2023-01-29T11:57:33.550Z,12.50
2023-01-29T12:00:06.384Z,11.00
2023-01-29T12:02:42.211Z,10.20
2023-01-29T12:05:17.838Z,8.90
2023-01-29T12:07:49.811Z,6.70
2023-01-29T12:10:33.946Z,8.70
2023-01-29T12:13:26.103Z,8.60
2023-01-29T12:16:17.898Z,10.70
2023-01-29T12:18:52.940Z,7.00
2023-01-29T12:21:30.109Z,12.30
2023-01-29T12:24:06.910Z,7.00
2023-01-29T12:26:41.307Z,8.30
2023-01-29T12:29:23.386Z,10.10
2023-01-29T12:32:03.763Z,6.30
2023-01-29T12:34:44.613Z,11.30
2023-01-29T12:37:22.610Z,10.70
2023-01-29T12:39:53.636Z,6.40
2023-01-29T12:42:24.968Z,5.50
2023-01-29T12:44:57.913Z,7.00
2023-01-29T12:47:32.900Z,9.00
2023-01-29T12:50:07.263Z,6.80
2023-01-29T12:52:43.199Z,8.60
2023-01-29T12:55:19.572Z,11.90
2023-01-29T12:57:55.553Z,8.30
2023-01-29T13:00:27.191Z,10.50
2023-01-29T13:03:02.447Z,8.50
2023-01-29T13:05:38.576Z,9.00
2023-01-29T13:08:14.568Z,6.90
2023-01-29T13:10:49.081Z,7.50
2023-01-29T13:13:26.567Z,9.20
2023-01-29T13:15:59.345Z,11.10
2023-01-29T13:18:43.274Z,7.40
2023-01-29T13:21:17.235Z,8.20
2023-01-29T13:23:49.104Z,7.10
2023-01-29T13:26:20.260Z,7.30
2023-01-29T13:28:51.684Z,8.30
2023-01-29T13:31:31.006Z,6.20
2023-01-29T13:34:15.345Z,9.40
2023-01-29T13:36:47.004Z,8.70
2023-01-29T13:39:24.190Z,7.90
2023-01-29T13:41:56.051Z,11.10
2023-01-29T13:44:28.233Z,7.80
2023-01-29T13:47:00.642Z,8.60
2023-01-29T13:49:38.426Z,8.90
2023-01-29T13:52:26.653Z,10.50
2023-01-29T13:54:57.979Z,9.20
2023-01-29T13:57:48.632Z,11.20
2023-01-29T14:00:57.726Z,9.90
2023-01-29T14:03:56.693Z,7.80
2023-01-29T14:06:46.619Z,9.40
2023-01-29T14:09:50.851Z,12.70
2023-01-29T14:12:53.653Z,7.00
2023-01-29T14:15:25.742Z,8.80
2023-01-29T14:18:13.934Z,10.70
2023-01-29T14:20:53.477Z,9.00
2023-01-29T14:23:30.242Z,11.40
2023-01-29T14:26:04.270Z,8.30
2023-01-29T14:28:35.508Z,9.30
2023-01-29T14:31:07.151Z,8.90
2023-01-29T14:33:41.009Z,11.30
2023-01-29T14:36:14.805Z,10.80
2023-01-29T14:38:50.342Z,9.20
2023-01-29T14:41:28.405Z,9.10
2023-01-29T14:44:29.277Z,10.40
2023-01-29T14:46:58.558Z,9.10
2023-01-29T14:49:49.677Z,13.30
2023-01-29T14:52:21.591Z,11.90
2023-01-29T14:54:52.792Z,13.30
2023-01-29T14:57:23.618Z,11.30
2023-01-29T14:59:58.054Z,13.60
2023-01-29T15:02:34.714Z,15.90
2023-01-29T15:05:07.275Z,14.00
2023-01-29T15:07:39.909Z,14.30
2023-01-29T15:10:23.750Z,18.30
2023-01-29T15:12:58.378Z,17.40
2023-01-29T15:15:37.366Z,15.40
2023-01-29T15:18:13.019Z,11.90
2023-01-29T15:20:43.623Z,14.20
2023-01-29T15:23:27.167Z,16.90
2023-01-29T15:26:01.232Z,14.80
2023-01-29T15:28:32.846Z,15.40
2023-01-29T15:31:04.525Z,19.50
2023-01-29T15:33:38.027Z,17.30
2023-01-29T15:36:18.264Z,18.40
2023-01-29T15:38:47.874Z,18.00
2023-01-29T15:41:20.790Z,22.00
2023-01-29T15:43:56.611Z,24.10
2023-01-29T15:46:28.272Z,24.00
2023-01-29T15:49:00.681Z,17.10
2023-01-29T15:51:32.038Z,21.20
2023-01-29T15:54:03.852Z,23.80
2023-01-29T15:56:37.045Z,25.90
2023-01-29T15:59:10.095Z,20.10
2023-01-29T16:01:39.607Z,20.50
2023-01-29T16:04:14.266Z,17.10
2023-01-29T16:06:45.437Z,18.30
2023-01-29T16:09:18.654Z,19.60
2023-01-29T16:11:50.351Z,21.30
2023-01-29T16:14:25.136Z,20.40
2023-01-29T16:16:55.345Z,21.10
2023-01-29T16:19:25.999Z,18.50
2023-01-29T16:22:01.960Z,19.50
2023-01-29T16:24:34.732Z,19.60
2023-01-29T16:27:11.803Z,21.00
2023-01-29T16:29:41.621Z,20.80
2023-01-29T16:32:13.401Z,19.60
2023-01-29T16:34:44.661Z,18.50
2023-01-29T16:37:23.765Z,17.60
2023-01-29T16:39:53.153Z,17.40
2023-01-29T16:42:27.809Z,18.40
2023-01-29T16:45:00.273Z,16.40
2023-01-29T16:47:33.101Z,22.40
2023-01-29T16:50:22.909Z,19.10
2023-01-29T16:52:58.155Z,15.90
2023-01-29T16:55:32.553Z,17.20
2023-01-29T16:58:09.028Z,16.50
2023-01-29T17:00:43.719Z,24.30
2023-01-29T17:03:14.910Z,21.50
2023-01-29T17:05:44.832Z,19.80
2023-01-29T17:08:22.757Z,22.80
2023-01-29T17:10:52.585Z,18.60
2023-01-29T17:13:31.060Z,27.30
2023-01-29T17:16:02.705Z,27.40
2023-01-29T17:18:32.007Z,26.80
2023-01-29T17:21:01.035Z,28.40
2023-01-29T17:23:30.034Z,24.80
2023-01-29T17:26:00.562Z,21.00
2023-01-29T17:28:30.589Z,24.20
2023-01-29T17:31:06.382Z,23.60
2023-01-29T17:33:38.485Z,19.70
2023-01-29T17:36:13.208Z,24.00
2023-01-29T17:38:42.393Z,26.60
2023-01-29T17:41:21.283Z,24.40
2023-01-29T17:43:51.246Z,26.50
2023-01-29T17:46:22.202Z,25.60
2023-01-29T17:48:51.918Z,24.10
2023-01-29T17:51:22.441Z,28.90
2023-01-29T17:53:52.541Z,32.80
2023-01-29T17:56:26.964Z,23.40
2023-01-29T17:58:56.545Z,28.70
2023-01-29T18:01:25.855Z,22.60
2023-01-29T18:03:55.231Z,25.10
2023-01-29T18:06:28.818Z,27.90
2023-01-29T18:08:58.420Z,25.50
2023-01-29T18:11:28.143Z,28.20
2023-01-29T18:13:57.859Z,27.90
2023-01-29T18:16:28.034Z,20.90
2023-01-29T18:21:25.805Z,22.60
2023-01-29T18:23:56.063Z,26.10
2023-01-29T18:26:25.369Z,22.40
2023-01-29T18:28:54.842Z,22.00
2023-01-29T18:31:28.621Z,23.10
2023-01-29T18:33:58.040Z,19.80
2023-01-29T18:36:27.340Z,21.30
2023-01-29T18:38:58.481Z,21.40
2023-01-29T18:41:27.582Z,24.70
2023-01-29T18:43:56.995Z,24.80
2023-01-29T18:46:27.843Z,23.20
2023-01-29T18:48:57.057Z,21.90
2023-01-29T18:51:25.975Z,30.70
2023-01-29T18:53:56.081Z,28.80
2023-01-29T18:56:25.755Z,24.30
2023-01-29T18:58:56.646Z,21.70
2023-01-29T19:01:27.124Z,26.50
2023-01-29T19:03:58.815Z,31.00
2023-01-29T19:06:28.002Z,27.80
2023-01-29T19:08:58.351Z,25.50
2023-01-29T19:11:27.216Z,21.30
2023-01-29T19:13:55.904Z,22.90
2023-01-29T19:16:25.664Z,26.50
2023-01-29T19:18:55.547Z,28.10
2023-01-29T19:21:25.012Z,21.20
2023-01-29T19:23:54.292Z,21.60
2023-01-29T19:26:23.706Z,25.60
2023-01-29T19:28:53.321Z,25.50
2023-01-29T19:31:22.371Z,21.90
2023-01-29T19:33:51.834Z,25.50
2023-01-29T19:36:21.505Z,26.20
2023-01-29T19:38:50.957Z,28.20
2023-01-29T19:41:20.240Z,25.90
2023-01-29T19:43:49.568Z,23.60
2023-01-29T19:46:18.632Z,23.40
2023-01-29T19:48:48.071Z,23.60
2023-01-29T19:51:17.486Z,24.00
2023-01-29T19:53:46.578Z,24.30
2023-01-29T19:56:18.161Z,26.40
2023-01-29T19:58:47.642Z,30.70
2023-01-29T20:01:19.203Z,27.60
2023-01-29T20:03:49.499Z,27.20
2023-01-29T20:06:23.813Z,27.20
2023-01-29T20:08:54.063Z,29.70
2023-01-29T20:11:24.774Z,32.90
2023-01-29T20:13:54.290Z,31.30
2023-01-29T20:16:24.794Z,33.90
2023-01-29T20:18:54.061Z,36.90
2023-01-29T20:21:23.250Z,31.40
2023-01-29T20:23:53.395Z,29.50
2023-01-29T20:26:22.623Z,30.30
2023-01-29T20:28:51.710Z,33.00
2023-01-29T20:31:20.934Z,33.60
2023-01-29T20:33:50.068Z,32.50
2023-01-29T20:36:19.518Z,30.80
2023-01-29T20:38:48.566Z,32.90
2023-01-29T20:41:19.417Z,26.40
2023-01-29T20:43:50.385Z,29.70
2023-01-29T20:46:20.342Z,42.20
2023-01-29T20:48:52.583Z,46.40
2023-01-29T20:51:21.844Z,30.80
2023-01-29T20:53:51.331Z,33.90
2023-01-29T20:56:32.079Z,44.70
2023-01-29T20:59:09.068Z,48.80
2023-01-29T21:01:38.647Z,29.90
2023-01-29T21:04:07.788Z,30.10
2023-01-29T21:06:37.084Z,27.40
2023-01-29T21:09:06.576Z,31.10
2023-01-29T21:11:35.741Z,33.20
2023-01-29T21:14:05.585Z,33.90
2023-01-29T21:16:34.384Z,44.90
2023-01-29T21:19:04.472Z,40.30
2023-01-29T21:21:34.277Z,45.50
2023-01-29T21:24:03.741Z,32.20
2023-01-29T21:26:33.126Z,34.90
2023-01-29T21:29:02.602Z,45.80
2023-01-29T21:31:31.700Z,61.30
2023-01-29T21:34:01.162Z,31.00
2023-01-29T21:36:30.708Z,126.40
2023-01-29T21:39:00.216Z,140.90
2023-01-29T21:41:43.955Z,111.70
2023-01-29T21:44:13.563Z,141.70
2023-01-29T21:46:43.064Z,60.60
2023-01-29T21:49:12.472Z,35.60
2023-01-29T21:51:41.822Z,94.90
2023-01-29T21:54:11.325Z,73.10
2023-01-29T21:56:40.524Z,38.70
2023-01-29T21:59:14.077Z,67.90
2023-01-29T22:01:43.470Z,83.70
2023-01-29T22:04:15.569Z,56.10
2023-01-29T22:06:44.895Z,79.70
2023-01-29T22:09:14.045Z,65.00
2023-01-29T22:11:43.505Z,65.30
2023-01-29T22:14:12.540Z,45.60
2023-01-29T22:16:41.560Z,82.80
2023-01-29T22:19:10.531Z,108.80
2023-01-29T22:21:39.940Z,90.00
2023-01-29T22:24:09.388Z,67.60
2023-01-29T22:26:39.216Z,56.90
2023-01-29T22:29:11.165Z,89.30
2023-01-29T22:31:40.433Z,36.80
2023-01-29T22:34:11.567Z,59.60
2023-01-29T22:36:40.915Z,51.30
2023-01-29T22:39:10.287Z,78.70
2023-01-29T22:41:39.509Z,54.20
2023-01-29T22:44:09.619Z,60.10
2023-01-29T22:46:38.871Z,59.10
2023-01-29T22:49:07.996Z,51.80
2023-01-29T22:51:37.293Z,56.20
2023-01-29T22:54:06.596Z,67.80
2023-01-29T22:56:35.735Z,63.70
2023-01-29T22:59:05.091Z,82.00
2023-01-29T23:01:34.548Z,71.20
2023-01-29T23:04:03.901Z,64.90
2023-01-29T23:06:33.205Z,50.70
2023-01-29T23:09:02.918Z,56.20
2023-01-29T23:11:32.138Z,67.00
2023-01-29T23:14:01.101Z,56.70
2023-01-29T23:16:30.111Z,43.30
2023-01-29T23:18:59.728Z,32.80
2023-01-29T23:21:29.116Z,42.80
2023-01-29T23:23:59.259Z,39.40
2023-01-29T23:26:47.076Z,45.30
2023-01-29T23:29:16.822Z,38.10
2023-01-29T23:31:46.238Z,32.60
2023-01-29T23:34:16.331Z,31.60
2023-01-29T23:36:45.733Z,30.70
2023-01-29T23:39:15.925Z,25.30
2023-01-29T23:41:45.064Z,21.40
2023-01-29T23:44:14.503Z,31.20
2023-01-29T23:46:44.972Z,26.90
2023-01-29T23:51:42.761Z,20.00
2023-01-29T23:54:12.759Z,26.00
2023-01-29T23:56:41.860Z,23.70
2023-01-29T23:59:11.453Z,24.30
